Fifty Lakes, Minnesota
Current Conditions -  °F | °C
As of 7:53 PM on Saturday 20 Dec 2014 (Local Time) from KPWC Reporting Station
Overcast Overcast  
Wind Chill: 18°   Ceiling: 700
Heat Index: 28°   Visibility: 7mi
Dew Point: 28°   Wind: 12mph
Humidity: 100%   Direction: 150°SSE
Pressure: 30.03"   Gusts: NA
Location:  46.74°N, 94.09°W
Report Text: KPWC 210153Z AUTO 15010KT 7SM OVC007 M02/M02 A3003 RMK AO2
Loading
Personal Weather Stations






























Interactive Weather Map New forecast layout! Learn more

10-Day Weather Forecast

Advertisements
Track Severe Weather on mobile